createdAt,value
2018-12-07T00:02:05.614Z,11.07
2018-12-07T00:04:33.865Z,11.07
2018-12-07T00:07:02.160Z,11.08
2018-12-07T00:09:30.331Z,11.11
2018-12-07T00:11:58.530Z,11.10
2018-12-07T00:14:26.889Z,11.04
2018-12-07T00:16:55.084Z,11.02
2018-12-07T00:19:23.535Z,11.03
2018-12-07T00:21:51.710Z,11.01
2018-12-07T00:24:21.170Z,11.06
2018-12-07T00:26:49.364Z,11.18
2018-12-07T00:29:17.568Z,11.12
2018-12-07T00:31:49.276Z,11.10
2018-12-07T00:34:19.345Z,11.06
2018-12-07T00:36:50.252Z,11.03
2018-12-07T00:39:18.554Z,11.10
2018-12-07T00:41:46.728Z,11.12
2018-12-07T00:44:14.945Z,11.10
2018-12-07T00:46:43.125Z,11.12
2018-12-07T00:49:11.313Z,11.06
2018-12-07T00:51:39.526Z,11.07
2018-12-07T00:54:07.724Z,11.03
2018-12-07T00:56:36.649Z,11.01
2018-12-07T00:59:05.229Z,11.11
2018-12-07T01:01:34.876Z,11.09
2018-12-07T01:04:04.704Z,11.09
2018-12-07T01:06:34.771Z,11.08
2018-12-07T01:09:05.757Z,11.06
2018-12-07T01:11:35.016Z,11.03
2018-12-07T01:14:03.241Z,11.05
2018-12-07T01:16:31.964Z,11.03
2018-12-07T01:19:00.294Z,11.00
2018-12-07T01:21:28.503Z,11.02
2018-12-07T01:23:56.733Z,11.02
2018-12-07T01:26:24.922Z,11.06
2018-12-07T01:28:53.649Z,11.08
2018-12-07T01:31:21.973Z,11.12
2018-12-07T01:33:50.256Z,11.04
2018-12-07T01:36:18.449Z,11.05
2018-12-07T01:38:46.664Z,11.00
2018-12-07T01:41:15.340Z,11.00
2018-12-07T01:43:43.577Z,10.99
2018-12-07T01:46:11.861Z,10.96
2018-12-07T01:48:40.134Z,11.03
2018-12-07T01:51:08.336Z,11.00
2018-12-07T01:53:36.530Z,11.00
2018-12-07T01:56:04.897Z,11.01
2018-12-07T01:58:33.103Z,11.02
2018-12-07T02:01:01.284Z,11.03
2018-12-07T02:03:29.689Z,11.12
2018-12-07T02:05:58.407Z,11.11
2018-12-07T02:08:26.798Z,11.04
2018-12-07T02:10:54.987Z,11.09
2018-12-07T02:13:23.181Z,11.14
2018-12-07T02:15:51.508Z,11.11
2018-12-07T02:18:19.737Z,11.13
2018-12-07T02:20:48.005Z,11.20
2018-12-07T02:23:16.169Z,11.20
2018-12-07T02:25:44.451Z,11.19
2018-12-07T02:28:12.630Z,11.22
2018-12-07T02:30:40.929Z,11.22
2018-12-07T02:33:09.149Z,11.21
2018-12-07T02:35:37.445Z,11.21
2018-12-07T02:38:05.634Z,11.22
2018-12-07T02:40:33.892Z,11.16
2018-12-07T02:43:02.769Z,11.18
2018-12-07T02:45:31.047Z,11.24
2018-12-07T02:47:59.237Z,11.20
2018-12-07T02:50:27.518Z,11.15
2018-12-07T02:52:55.800Z,11.14
2018-12-07T02:55:24.030Z,11.19
2018-12-07T02:57:52.245Z,11.17
2018-12-07T03:00:20.421Z,11.15
2018-12-07T03:02:48.696Z,11.09
2018-12-07T03:05:16.973Z,11.12
2018-12-07T03:07:45.264Z,11.13
2018-12-07T03:10:13.512Z,11.08
2018-12-07T03:12:41.781Z,11.07
2018-12-07T03:15:10.068Z,11.08
2018-12-07T03:17:38.236Z,11.06
2018-12-07T03:20:06.515Z,11.06
2018-12-07T03:22:35.106Z,11.12
2018-12-07T03:25:03.378Z,11.19
2018-12-07T03:27:31.566Z,11.19
2018-12-07T03:29:59.734Z,11.15
2018-12-07T03:32:27.929Z,11.16
2018-12-07T03:34:56.190Z,11.11
2018-12-07T03:37:24.437Z,11.15
2018-12-07T03:39:52.626Z,11.07
2018-12-07T03:42:20.895Z,11.02
2018-12-07T03:44:49.080Z,11.01
2018-12-07T03:47:17.348Z,10.98
2018-12-07T03:49:45.513Z,10.93
2018-12-07T03:52:13.709Z,10.91
2018-12-07T03:54:41.886Z,10.96
2018-12-07T03:57:10.131Z,10.89
2018-12-07T03:59:38.324Z,10.90
2018-12-07T04:02:06.700Z,10.89
2018-12-07T04:04:34.919Z,10.83
2018-12-07T04:07:03.664Z,10.82
2018-12-07T04:09:32.009Z,10.79
2018-12-07T04:12:01.052Z,10.75
2018-12-07T04:14:29.304Z,10.70
2018-12-07T04:16:57.590Z,10.67
2018-12-07T04:19:25.850Z,10.74
2018-12-07T04:21:54.126Z,10.68
2018-12-07T04:24:22.769Z,10.61
2018-12-07T04:26:50.940Z,10.65
2018-12-07T04:29:19.118Z,10.69
2018-12-07T04:31:48.414Z,10.67
2018-12-07T04:34:16.589Z,10.61
2018-12-07T04:36:44.808Z,10.67
2018-12-07T04:39:13.137Z,10.61
2018-12-07T04:41:41.407Z,10.57
2018-12-07T04:44:09.584Z,10.63
2018-12-07T04:46:37.810Z,10.63
2018-12-07T04:49:06.075Z,10.63
2018-12-07T04:51:34.357Z,10.65
2018-12-07T04:54:02.550Z,10.73
2018-12-07T04:56:30.870Z,10.68
2018-12-07T04:58:59.090Z,10.57
2018-12-07T05:01:27.470Z,10.64
2018-12-07T05:03:55.639Z,10.72
2018-12-07T05:06:24.005Z,10.64
2018-12-07T05:08:52.213Z,10.56
2018-12-07T05:11:20.379Z,10.62
2018-12-07T05:13:49.928Z,10.72
2018-12-07T05:16:18.241Z,10.61
2018-12-07T05:18:46.421Z,10.60
2018-12-07T05:21:14.615Z,10.60
2018-12-07T05:23:42.885Z,10.56
2018-12-07T05:26:11.509Z,10.54
2018-12-07T05:28:39.683Z,10.57
2018-12-07T05:31:07.894Z,10.58
2018-12-07T05:33:36.089Z,10.55
2018-12-07T05:36:04.257Z,10.53
2018-12-07T05:38:33.294Z,10.52
2018-12-07T05:41:01.622Z,10.54
2018-12-07T05:43:30.201Z,10.54
2018-12-07T05:45:58.577Z,10.52
2018-12-07T05:48:26.758Z,10.45
2018-12-07T05:50:54.972Z,10.48
2018-12-07T05:53:23.197Z,10.47
2018-12-07T05:55:52.724Z,10.39
2018-12-07T05:58:24.038Z,10.41
2018-12-07T06:00:53.234Z,10.34
2018-12-07T06:03:23.225Z,10.31
2018-12-07T06:05:53.200Z,10.24
2018-12-07T06:08:22.793Z,10.21
2018-12-07T06:10:53.565Z,10.20
2018-12-07T06:13:25.721Z,10.21
2018-12-07T06:15:54.225Z,10.20
2018-12-07T06:18:22.531Z,10.15
2018-12-07T06:20:50.817Z,10.13
2018-12-07T06:23:18.995Z,10.10
2018-12-07T06:25:47.170Z,10.11
2018-12-07T06:28:15.653Z,10.12
2018-12-07T06:30:43.833Z,10.21
2018-12-07T06:33:12.006Z,10.22
2018-12-07T06:35:40.269Z,10.15
2018-12-07T06:38:08.501Z,10.12
2018-12-07T06:40:36.734Z,10.12
2018-12-07T06:43:04.926Z,10.11
2018-12-07T06:45:33.104Z,10.08
2018-12-07T06:48:01.339Z,10.13
2018-12-07T06:50:29.515Z,10.13
2018-12-07T06:52:58.254Z,10.09
2018-12-07T06:55:26.468Z,10.10
2018-12-07T06:57:54.849Z,10.05
2018-12-07T07:00:23.140Z,10.08
2018-12-07T07:02:51.316Z,10.04
2018-12-07T07:05:19.517Z,10.02
2018-12-07T07:07:47.713Z,10.02
2018-12-07T07:10:15.917Z,10.00
2018-12-07T07:12:44.094Z,10.00
2018-12-07T07:15:12.262Z,10.01
2018-12-07T07:17:41.318Z,9.99
2018-12-07T07:20:09.641Z,9.98
2018-12-07T07:22:37.824Z,9.93
2018-12-07T07:25:06.313Z,9.88
2018-12-07T07:27:34.486Z,9.86
2018-12-07T07:30:02.866Z,9.93
2018-12-07T07:32:31.114Z,9.91
2018-12-07T07:34:59.286Z,9.99
2018-12-07T07:37:27.478Z,9.94
2018-12-07T07:39:55.844Z,9.87
2018-12-07T07:42:25.307Z,9.88
2018-12-07T07:44:53.513Z,9.83
2018-12-07T07:47:21.802Z,9.82
2018-12-07T07:49:50.077Z,9.78
2018-12-07T07:52:18.341Z,9.74
2018-12-07T07:54:47.389Z,9.73
2018-12-07T07:57:15.561Z,9.68
2018-12-07T07:59:43.778Z,9.65
2018-12-07T08:02:11.996Z,9.70
2018-12-07T08:04:40.348Z,9.64
2018-12-07T08:07:08.875Z,9.69
2018-12-07T08:09:37.097Z,9.67
2018-12-07T08:12:05.268Z,9.62
2018-12-07T08:14:33.478Z,9.68
2018-12-07T08:17:03.474Z,9.74
2018-12-07T08:19:32.102Z,9.67
2018-12-07T08:22:26.900Z,9.68
2018-12-07T08:24:55.137Z,9.65
2018-12-07T08:27:23.385Z,9.69
2018-12-07T08:29:51.553Z,9.71
2018-12-07T08:32:19.921Z,9.68
2018-12-07T08:34:48.114Z,9.70
2018-12-07T08:37:16.870Z,9.68
2018-12-07T08:39:45.094Z,9.65
2018-12-07T08:42:22.645Z,9.65
2018-12-07T08:44:50.920Z,9.59
2018-12-07T08:47:19.174Z,9.58
2018-12-07T08:49:56.185Z,9.57
2018-12-07T08:52:24.826Z,9.55
2018-12-07T08:54:53.205Z,9.53
2018-12-07T08:57:21.458Z,9.51
2018-12-07T08:59:49.714Z,9.52
2018-12-07T09:02:17.906Z,9.50
2018-12-07T09:04:46.164Z,9.58
2018-12-07T09:07:14.480Z,9.59
2018-12-07T09:09:42.716Z,9.51
2018-12-07T09:12:10.993Z,9.47
2018-12-07T09:14:39.181Z,9.47
2018-12-07T09:17:07.427Z,9.44
2018-12-07T09:19:36.304Z,9.44
2018-12-07T09:22:04.615Z,9.48
2018-12-07T09:24:32.785Z,9.50
2018-12-07T09:27:01.130Z,9.50
2018-12-07T09:29:29.322Z,9.54
2018-12-07T09:31:57.865Z,9.50
2018-12-07T09:34:26.102Z,9.48
2018-12-07T09:36:54.261Z,9.51
2018-12-07T09:39:22.507Z,9.49
2018-12-07T09:41:52.398Z,9.54
2018-12-07T09:44:20.992Z,9.56
2018-12-07T09:46:49.201Z,9.56
2018-12-07T09:49:17.444Z,9.56
2018-12-07T09:51:45.698Z,9.53
2018-12-07T09:54:13.930Z,9.53
2018-12-07T09:56:42.579Z,9.58
2018-12-07T09:59:10.788Z,9.56
2018-12-07T10:01:39.076Z,9.65
2018-12-07T10:04:07.256Z,9.60
2018-12-07T10:06:35.421Z,9.61
2018-12-07T10:09:06.060Z,9.59
2018-12-07T10:11:34.337Z,9.60
2018-12-07T10:14:02.518Z,9.64
2018-12-07T10:16:30.788Z,9.65
2018-12-07T10:18:58.965Z,9.64
2018-12-07T10:21:27.236Z,9.68
2018-12-07T10:23:55.390Z,9.79
2018-12-07T10:26:23.550Z,9.85
2018-12-07T10:28:51.751Z,9.89
2018-12-07T10:31:19.925Z,9.94
2018-12-07T10:33:48.549Z,9.97
2018-12-07T10:36:16.713Z,9.96
2018-12-07T10:38:44.889Z,9.96
2018-12-07T10:41:13.064Z,10.01
2018-12-07T10:43:41.293Z,10.03
2018-12-07T10:46:09.830Z,10.06
2018-12-07T10:48:37.993Z,10.09
2018-12-07T10:51:08.185Z,10.11
2018-12-07T10:53:36.451Z,10.10
2018-12-07T10:56:04.729Z,10.14
2018-12-07T10:58:33.257Z,10.12
2018-12-07T11:01:06.823Z,10.04
2018-12-07T11:03:40.545Z,10.02
2018-12-07T11:06:13.046Z,10.10
2018-12-07T11:08:46.865Z,10.14
2018-12-07T11:11:20.637Z,10.20
2018-12-07T11:13:54.765Z,10.18
2018-12-07T11:16:28.151Z,10.14
2018-12-07T11:19:01.945Z,10.05
2018-12-07T11:21:35.495Z,10.00
2018-12-07T11:24:09.671Z,9.96
2018-12-07T11:26:43.217Z,9.90
2018-12-07T11:29:16.915Z,9.86
2018-12-07T11:31:50.346Z,9.82
2018-12-07T11:34:24.876Z,9.83
2018-12-07T11:36:53.208Z,9.79
2018-12-07T11:39:21.373Z,9.75
2018-12-07T11:41:49.569Z,9.70
2018-12-07T11:44:17.815Z,9.72
2018-12-07T11:46:46.060Z,9.77
2018-12-07T11:49:14.290Z,9.68
2018-12-07T11:51:42.468Z,9.64
2018-12-07T11:54:10.660Z,9.63
2018-12-07T11:56:38.905Z,9.59
2018-12-07T11:59:07.686Z,9.61
2018-12-07T12:01:35.869Z,9.57
2018-12-07T12:04:04.145Z,9.53
2018-12-07T12:06:32.321Z,9.50
2018-12-07T12:09:00.493Z,9.50
2018-12-07T12:11:30.067Z,9.47
2018-12-07T12:13:58.282Z,9.45
2018-12-07T12:16:26.578Z,9.47
2018-12-07T12:18:54.765Z,9.42
2018-12-07T12:21:22.995Z,9.43
2018-12-07T12:23:53.810Z,9.47
2018-12-07T12:26:21.514Z,9.41
2018-12-07T12:28:49.676Z,9.40
2018-12-07T12:31:17.849Z,9.37
2018-12-07T12:33:46.024Z,9.38
2018-12-07T12:36:17.232Z,9.39
2018-12-07T12:38:44.387Z,9.37
2018-12-07T12:41:12.682Z,9.36
2018-12-07T12:43:40.869Z,9.36
2018-12-07T12:46:09.178Z,9.38
2018-12-07T12:48:38.804Z,9.40
2018-12-07T12:51:07.117Z,9.37
2018-12-07T12:53:35.391Z,9.34
2018-12-07T12:56:03.561Z,9.38
2018-12-07T12:58:31.803Z,9.38
2018-12-07T13:00:59.998Z,9.40
2018-12-07T13:03:28.289Z,9.38
2018-12-07T13:05:56.557Z,9.39
2018-12-07T13:08:24.748Z,9.35
2018-12-07T13:10:53.017Z,9.37
2018-12-07T13:13:22.001Z,9.33
2018-12-07T13:15:50.178Z,9.34
2018-12-07T13:18:18.369Z,9.31
2018-12-07T13:20:46.552Z,9.27
2018-12-07T13:23:14.719Z,9.29
2018-12-07T13:25:43.360Z,9.31
2018-12-07T13:28:11.536Z,9.39
2018-12-07T13:30:39.840Z,9.37
2018-12-07T13:33:08.128Z,9.30
2018-12-07T13:35:36.379Z,9.30
2018-12-07T13:38:04.596Z,9.31
2018-12-07T13:40:32.757Z,9.23
2018-12-07T13:43:00.931Z,9.24
2018-12-07T13:45:29.333Z,9.23
2018-12-07T13:47:57.793Z,9.20
2018-12-07T13:50:42.567Z,9.19
2018-12-07T13:53:10.946Z,9.19
2018-12-07T13:55:39.319Z,9.13
2018-12-07T13:58:07.918Z,9.17
2018-12-07T14:00:36.172Z,9.18
2018-12-07T14:03:04.672Z,9.17
2018-12-07T14:05:33.234Z,9.18
2018-12-07T14:08:01.553Z,9.18
2018-12-07T14:10:29.949Z,9.22
2018-12-07T14:12:58.247Z,9.24
2018-12-07T14:15:26.780Z,9.27
2018-12-07T14:17:55.190Z,9.39
2018-12-07T14:20:23.642Z,9.29
2018-12-07T14:22:52.185Z,9.19
2018-12-07T14:25:20.643Z,9.13
2018-12-07T14:27:48.968Z,9.08
2018-12-07T14:30:17.421Z,9.10
2018-12-07T14:32:45.767Z,9.05
2018-12-07T14:35:14.041Z,9.08
2018-12-07T14:37:42.591Z,9.06
2018-12-07T14:40:11.271Z,8.93
2018-12-07T14:42:39.462Z,8.89
2018-12-07T14:45:08.278Z,8.92
2018-12-07T14:47:36.586Z,8.85
2018-12-07T14:50:06.265Z,8.86
2018-12-07T14:52:34.732Z,8.84
2018-12-07T14:55:03.146Z,8.80
2018-12-07T14:57:31.543Z,8.83
2018-12-07T14:59:59.911Z,8.79
2018-12-07T15:02:28.226Z,8.78
2018-12-07T15:04:56.875Z,8.78
2018-12-07T15:07:25.306Z,8.76
2018-12-07T15:09:53.508Z,8.74
2018-12-07T15:12:21.971Z,8.71
2018-12-07T15:14:50.419Z,8.75
2018-12-07T15:17:18.806Z,8.74
2018-12-07T15:19:47.081Z,8.73
2018-12-07T15:22:15.480Z,8.67
2018-12-07T15:24:43.812Z,8.70
2018-12-07T15:27:12.067Z,8.69
2018-12-07T15:29:41.348Z,8.67
2018-12-07T15:32:09.793Z,8.67
2018-12-07T15:34:38.066Z,8.64
2018-12-07T15:37:06.464Z,8.61
2018-12-07T15:39:34.958Z,8.62
2018-12-07T15:42:03.799Z,8.60
2018-12-07T15:44:32.400Z,8.60
2018-12-07T15:47:00.852Z,8.63
2018-12-07T15:49:29.455Z,8.62
2018-12-07T15:51:57.862Z,8.63
2018-12-07T15:54:26.856Z,8.60
2018-12-07T15:56:55.185Z,8.61
2018-12-07T15:59:23.486Z,8.62
2018-12-07T16:01:51.883Z,8.60
2018-12-07T16:04:20.143Z,8.63
2018-12-07T16:06:49.578Z,8.63
2018-12-07T16:09:18.070Z,8.62
2018-12-07T16:11:46.609Z,8.65
2018-12-07T16:14:15.061Z,8.62
2018-12-07T16:16:43.572Z,8.63
2018-12-07T16:19:11.849Z,8.68
2018-12-07T16:21:40.271Z,8.70
2018-12-07T16:24:08.661Z,8.70
2018-12-07T16:26:37.092Z,8.71
2018-12-07T16:29:06.103Z,8.68
2018-12-07T16:31:34.728Z,8.68
2018-12-07T16:34:02.979Z,8.70
2018-12-07T16:36:31.244Z,8.71
2018-12-07T16:38:59.900Z,8.71
2018-12-07T16:41:28.179Z,8.75
2018-12-07T16:43:56.870Z,8.73
2018-12-07T16:46:25.493Z,8.77
2018-12-07T16:48:54.010Z,8.75
2018-12-07T16:51:22.895Z,8.82
2018-12-07T16:53:51.670Z,8.78
2018-12-07T16:56:20.580Z,8.77
2018-12-07T16:58:48.949Z,8.82
2018-12-07T17:01:17.745Z,8.82
2018-12-07T17:03:51.534Z,8.85
2018-12-07T17:06:20.010Z,8.89
2018-12-07T17:08:49.087Z,8.88
2018-12-07T17:11:17.422Z,8.92
2018-12-07T17:13:45.711Z,8.94
2018-12-07T17:16:14.291Z,8.94
2018-12-07T17:18:42.946Z,8.30
2018-12-07T17:21:11.615Z,7.61
2018-12-07T17:23:40.271Z,7.16
2018-12-07T17:26:08.912Z,6.97
2018-12-07T17:28:37.715Z,6.90
2018-12-07T17:31:06.214Z,6.73
2018-12-07T17:33:34.629Z,6.74
2018-12-07T17:36:03.247Z,6.79
2018-12-07T17:38:31.957Z,6.77
2018-12-07T17:41:00.541Z,6.71
2018-12-07T17:43:29.427Z,6.65
2018-12-07T17:45:58.120Z,6.59
2018-12-07T17:48:26.475Z,6.55
2018-12-07T17:50:54.657Z,6.54
2018-12-07T17:53:23.642Z,6.51
2018-12-07T17:55:52.953Z,6.63
2018-12-07T17:58:21.784Z,6.48
2018-12-07T18:00:51.767Z,6.42
2018-12-07T18:03:19.975Z,6.39
2018-12-07T18:05:48.202Z,6.38
2018-12-07T18:08:16.784Z,6.40
2018-12-07T18:10:45.908Z,6.48
2018-12-07T18:13:14.385Z,6.41
2018-12-07T18:15:43.018Z,6.44
2018-12-07T18:18:11.547Z,6.51
2018-12-07T18:20:39.976Z,6.52
2018-12-07T18:23:09.690Z,6.49
2018-12-07T18:25:38.333Z,6.54
2018-12-07T18:28:07.702Z,6.59
2018-12-07T18:30:37.072Z,6.53
2018-12-07T18:33:05.627Z,6.58
2018-12-07T18:35:34.111Z,6.55
2018-12-07T18:38:02.893Z,6.54
2018-12-07T18:40:31.188Z,6.57
2018-12-07T18:43:00.155Z,6.58
2018-12-07T18:45:28.494Z,6.68
2018-12-07T18:47:57.009Z,6.61
2018-12-07T18:50:25.645Z,6.58
2018-12-07T18:52:54.355Z,6.65
2018-12-07T18:55:23.229Z,6.66
2018-12-07T18:57:52.155Z,6.70
2018-12-07T19:00:20.975Z,6.70
2018-12-07T19:02:49.351Z,6.70
2018-12-07T19:05:17.525Z,6.78
2018-12-07T19:07:45.841Z,6.75
2018-12-07T19:10:14.270Z,6.64
2018-12-07T19:12:42.709Z,6.61
2018-12-07T19:15:11.110Z,6.58
2018-12-07T19:17:39.675Z,6.43
2018-12-07T19:20:08.580Z,6.40
2018-12-07T19:22:37.332Z,6.33
2018-12-07T19:25:06.709Z,6.31
2018-12-07T19:27:35.213Z,6.35
2018-12-07T19:30:03.752Z,6.27
2018-12-07T19:32:32.332Z,6.13
2018-12-07T19:35:00.677Z,6.10
2018-12-07T19:37:29.251Z,5.94
2018-12-07T19:39:57.931Z,5.88
2018-12-07T19:42:26.456Z,5.79
2018-12-07T19:44:55.119Z,5.73
2018-12-07T19:47:23.876Z,5.73
2018-12-07T19:49:53.053Z,5.73
2018-12-07T19:52:22.642Z,5.76
2018-12-07T19:54:51.996Z,5.69
2018-12-07T19:57:21.030Z,5.72
2018-12-07T19:59:51.255Z,5.69
2018-12-07T20:02:21.498Z,5.73
2018-12-07T20:04:50.226Z,5.70
2018-12-07T20:07:20.476Z,5.71
2018-12-07T20:09:49.777Z,5.88
2018-12-07T20:12:19.890Z,5.79
2018-12-07T20:14:48.675Z,5.85
2018-12-07T20:17:17.318Z,5.82
2018-12-07T20:19:46.128Z,5.90
2018-12-07T20:22:15.001Z,5.92
2018-12-07T20:24:44.940Z,5.83
2018-12-07T20:27:13.307Z,5.83
2018-12-07T20:29:42.379Z,5.89
2018-12-07T20:32:11.362Z,5.86
2018-12-07T20:34:39.738Z,5.81
2018-12-07T20:37:08.642Z,5.75
2018-12-07T20:39:37.198Z,5.78
2018-12-07T20:42:05.926Z,5.79
2018-12-07T20:44:34.247Z,5.79
2018-12-07T20:47:02.944Z,5.72
2018-12-07T20:49:31.668Z,5.83
2018-12-07T20:52:00.679Z,5.83
2018-12-07T20:54:29.103Z,5.77
2018-12-07T20:56:57.433Z,5.71
2018-12-07T20:59:25.897Z,5.66
2018-12-07T21:01:54.654Z,5.61
2018-12-07T21:04:30.883Z,5.54
2018-12-07T21:08:11.571Z,5.58
2018-12-07T21:11:07.828Z,5.72
2018-12-07T21:14:44.715Z,5.78
2018-12-07T21:17:26.105Z,5.77
2018-12-07T21:20:02.339Z,5.67
2018-12-07T21:22:30.721Z,5.69
2018-12-07T21:24:59.197Z,5.63
2018-12-07T21:27:27.844Z,5.63
2018-12-07T21:33:20.785Z,5.82
2018-12-07T21:36:40.482Z,5.89
2018-12-07T21:39:32.143Z,5.72
2018-12-07T21:42:01.008Z,5.66
2018-12-07T21:44:29.281Z,5.59
2018-12-07T21:46:58.423Z,5.50
2018-12-07T21:49:30.030Z,5.38
2018-12-07T21:52:13.816Z,5.44
2018-12-07T21:54:42.349Z,5.41
2018-12-07T21:57:11.154Z,5.41
2018-12-07T21:59:40.190Z,5.33
2018-12-07T22:02:08.767Z,5.25
2018-12-07T22:04:37.883Z,5.23
2018-12-07T22:07:07.244Z,5.18
2018-12-07T22:09:35.770Z,5.15
2018-12-07T22:12:05.726Z,5.20
2018-12-07T22:14:34.925Z,5.23
2018-12-07T22:17:03.925Z,5.22
2018-12-07T22:19:32.212Z,5.28
2018-12-07T22:22:00.904Z,5.25
2018-12-07T22:24:29.234Z,5.21
2018-12-07T22:26:57.543Z,5.31
2018-12-07T22:29:25.971Z,5.24
2018-12-07T22:31:54.262Z,5.15
2018-12-07T22:34:22.884Z,5.14
2018-12-07T22:36:51.462Z,5.17
2018-12-07T22:39:21.510Z,5.10
2018-12-07T22:41:50.621Z,5.08
2018-12-07T22:44:19.265Z,5.09
2018-12-07T22:46:47.678Z,5.03
2018-12-07T22:49:16.011Z,5.09
2018-12-07T22:51:45.538Z,5.17
2018-12-07T22:54:13.770Z,5.15
2018-12-07T22:56:42.146Z,5.18
2018-12-07T22:59:10.320Z,5.19
2018-12-07T23:01:38.597Z,5.28
2018-12-07T23:04:06.859Z,5.31
2018-12-07T23:06:35.056Z,5.38
2018-12-07T23:09:04.273Z,5.35
2018-12-07T23:11:32.539Z,5.40
2018-12-07T23:14:00.711Z,5.38
2018-12-07T23:16:30.056Z,5.39
2018-12-07T23:18:58.480Z,5.41
2018-12-07T23:21:26.802Z,5.43
2018-12-07T23:23:55.062Z,5.38
2018-12-07T23:26:23.309Z,5.45
2018-12-07T23:28:51.641Z,5.40
2018-12-07T23:31:19.945Z,5.42
2018-12-07T23:33:48.356Z,5.34
2018-12-07T23:36:16.620Z,5.33
2018-12-07T23:38:44.785Z,5.26
2018-12-07T23:41:13.832Z,5.25
2018-12-07T23:43:42.051Z,5.25
2018-12-07T23:46:10.325Z,5.24
2018-12-07T23:48:38.517Z,5.25
2018-12-07T23:51:06.770Z,5.26
2018-12-07T23:53:35.428Z,5.28
2018-12-07T23:56:03.741Z,5.13
2018-12-07T23:58:32.010Z,5.07
